sensor_id;sensor_type;location;lat;lon;timestamp;pressure;altitude;pressure_sealevel;temperature;humidity
37068;BME280;22982;42.848;25.468;2022-10-16T00:02:22;96962.94;;;3.90;100.00
37068;BME280;22982;42.848;25.468;2022-10-16T00:07:25;96929.00;;;3.62;100.00
37068;BME280;22982;42.848;25.468;2022-10-16T00:12:27;96970.25;;;3.74;100.00
37068;BME280;22982;42.848;25.468;2022-10-16T00:17:30;96962.56;;;3.70;100.00
37068;BME280;22982;42.848;25.468;2022-10-16T00:22:33;96966.13;;;3.64;100.00
37068;BME280;22982;42.848;25.468;2022-10-16T00:27:35;96968.94;;;3.55;100.00
37068;BME280;22982;42.848;25.468;2022-10-16T00:32:37;96955.41;;;3.40;100.00
37068;BME280;22982;42.848;25.468;2022-10-16T00:37:40;96989.00;;;3.45;100.00
37068;BME280;22982;42.848;25.468;2022-10-16T00:42:42;97000.13;;;3.50;100.00
37068;BME280;22982;42.848;25.468;2022-10-16T00:47:45;96961.03;;;3.17;100.00
37068;BME280;22982;42.848;25.468;2022-10-16T00:52:51;96989.88;;;3.45;100.00
37068;BME280;22982;42.848;25.468;2022-10-16T00:57:54;97000.56;;;3.29;100.00
37068;BME280;22982;42.848;25.468;2022-10-16T01:02:59;96994.31;;;3.39;100.00
37068;BME280;22982;42.848;25.468;2022-10-16T01:08:18;97007.59;;;3.23;100.00
37068;BME280;22982;42.848;25.468;2022-10-16T01:13:32;96984.97;;;2.85;100.00
37068;BME280;22982;42.848;25.468;2022-10-16T01:18:57;97051.09;;;3.06;100.00
37068;BME280;22982;42.848;25.468;2022-10-16T01:29:30;97040.59;;;2.64;100.00
37068;BME280;22982;42.848;25.468;2022-10-16T01:34:50;96998.69;;;2.40;100.00
37068;BME280;22982;42.848;25.468;2022-10-16T01:39:58;97024.16;;;2.65;100.00
37068;BME280;22982;42.848;25.468;2022-10-16T01:45:03;97014.56;;;2.72;100.00
37068;BME280;22982;42.848;25.468;2022-10-16T01:50:08;97067.09;;;2.80;100.00
37068;BME280;22982;42.848;25.468;2022-10-16T01:55:16;97015.22;;;2.33;100.00
37068;BME280;22982;42.848;25.468;2022-10-16T02:00:20;96995.59;;;2.17;100.00
37068;BME280;22982;42.848;25.468;2022-10-16T02:05:47;97062.00;;;2.75;100.00
37068;BME280;22982;42.848;25.468;2022-10-16T02:10:51;97035.66;;;2.48;100.00
37068;BME280;22982;42.848;25.468;2022-10-16T02:15:53;97081.72;;;2.84;100.00
37068;BME280;22982;42.848;25.468;2022-10-16T02:21:02;97078.97;;;2.92;100.00
37068;BME280;22982;42.848;25.468;2022-10-16T02:26:13;97050.03;;;2.68;100.00
37068;BME280;22982;42.848;25.468;2022-10-16T02:31:23;97085.84;;;2.93;100.00
37068;BME280;22982;42.848;25.468;2022-10-16T02:36:29;97001.84;;;2.58;100.00
37068;BME280;22982;42.848;25.468;2022-10-16T02:41:32;97085.81;;;2.96;100.00
37068;BME280;22982;42.848;25.468;2022-10-16T02:46:35;97045.81;;;2.62;100.00
37068;BME280;22982;42.848;25.468;2022-10-16T02:51:37;97069.91;;;2.66;100.00
37068;BME280;22982;42.848;25.468;2022-10-16T02:56:39;97067.59;;;2.47;100.00
37068;BME280;22982;42.848;25.468;2022-10-16T03:01:42;97054.88;;;2.35;100.00
37068;BME280;22982;42.848;25.468;2022-10-16T03:06:44;97031.72;;;2.26;100.00
37068;BME280;22982;42.848;25.468;2022-10-16T03:11:46;97090.06;;;2.45;100.00
37068;BME280;22982;42.848;25.468;2022-10-16T03:16:49;97072.84;;;2.44;100.00
37068;BME280;22982;42.848;25.468;2022-10-16T03:21:51;97109.81;;;2.53;100.00
37068;BME280;22982;42.848;25.468;2022-10-16T03:26:53;97059.56;;;2.08;100.00
37068;BME280;22982;42.848;25.468;2022-10-16T03:31:56;97073.50;;;1.97;100.00
37068;BME280;22982;42.848;25.468;2022-10-16T03:37:01;97121.78;;;1.98;100.00
37068;BME280;22982;42.848;25.468;2022-10-16T03:42:03;97056.03;;;1.46;100.00
37068;BME280;22982;42.848;25.468;2022-10-16T03:47:08;97105.00;;;1.58;100.00
37068;BME280;22982;42.848;25.468;2022-10-16T03:52:12;97111.03;;;1.60;100.00
37068;BME280;22982;42.848;25.468;2022-10-16T03:57:14;97084.38;;;1.55;100.00
37068;BME280;22982;42.848;25.468;2022-10-16T04:02:17;97127.19;;;1.81;100.00
37068;BME280;22982;42.848;25.468;2022-10-16T04:07:19;97059.16;;;1.74;100.00
37068;BME280;22982;42.848;25.468;2022-10-16T04:12:21;97097.66;;;1.97;100.00
37068;BME280;22982;42.848;25.468;2022-10-16T04:17:23;97130.34;;;2.04;100.00
37068;BME280;22982;42.848;25.468;2022-10-16T04:22:26;97084.31;;;1.61;100.00
37068;BME280;22982;42.848;25.468;2022-10-16T04:27:28;97091.25;;;1.58;100.00
37068;BME280;22982;42.848;25.468;2022-10-16T04:32:33;97088.78;;;1.45;100.00
37068;BME280;22982;42.848;25.468;2022-10-16T04:37:35;97128.19;;;1.64;100.00
37068;BME280;22982;42.848;25.468;2022-10-16T04:42:37;97112.66;;;1.69;100.00
37068;BME280;22982;42.848;25.468;2022-10-16T04:47:39;97142.38;;;2.04;100.00
37068;BME280;22982;42.848;25.468;2022-10-16T04:52:42;97094.53;;;1.70;100.00
37068;BME280;22982;42.848;25.468;2022-10-16T04:57:44;97103.16;;;1.69;100.00
37068;BME280;22982;42.848;25.468;2022-10-16T05:02:47;97156.25;;;1.98;100.00
37068;BME280;22982;42.848;25.468;2022-10-16T05:07:49;97135.81;;;1.77;100.00
37068;BME280;22982;42.848;25.468;2022-10-16T05:12:52;97103.94;;;1.76;100.00
37068;BME280;22982;42.848;25.468;2022-10-16T05:17:54;97133.69;;;2.09;100.00
37068;BME280;22982;42.848;25.468;2022-10-16T05:22:57;97159.69;;;2.00;100.00
37068;BME280;22982;42.848;25.468;2022-10-16T05:28:00;97163.97;;;2.03;100.00
37068;BME280;22982;42.848;25.468;2022-10-16T05:33:02;97142.38;;;2.05;100.00
37068;BME280;22982;42.848;25.468;2022-10-16T05:38:22;97145.53;;;2.27;100.00
37068;BME280;22982;42.848;25.468;2022-10-16T05:43:35;97136.50;;;2.58;100.00
37068;BME280;22982;42.848;25.468;2022-10-16T05:48:43;97125.78;;;2.82;100.00
37068;BME280;22982;42.848;25.468;2022-10-16T05:53:52;97167.41;;;3.24;100.00
37068;BME280;22982;42.848;25.468;2022-10-16T05:58:55;97176.56;;;3.44;100.00
37068;BME280;22982;42.848;25.468;2022-10-16T06:04:18;97161.81;;;3.48;100.00
37068;BME280;22982;42.848;25.468;2022-10-16T06:09:22;97161.44;;;3.68;100.00
37068;BME280;22982;42.848;25.468;2022-10-16T06:14:25;97184.97;;;4.05;100.00
37068;BME280;22982;42.848;25.468;2022-10-16T06:24:58;97164.22;;;5.21;100.00
37068;BME280;22982;42.848;25.468;2022-10-16T06:30:16;97136.44;;;12.86;71.47
37068;BME280;22982;42.848;25.468;2022-10-16T06:36:01;97176.22;;;17.74;47.96
37068;BME280;22982;42.848;25.468;2022-10-16T06:41:04;97169.09;;;19.99;42.22
37068;BME280;22982;42.848;25.468;2022-10-16T06:46:09;97153.19;;;20.92;40.73
37068;BME280;22982;42.848;25.468;2022-10-16T06:51:17;97169.09;;;21.73;38.82
37068;BME280;22982;42.848;25.468;2022-10-16T06:56:22;97168.56;;;22.93;36.91
37068;BME280;22982;42.848;25.468;2022-10-16T07:01:26;97145.72;;;23.08;36.77
37068;BME280;22982;42.848;25.468;2022-10-16T07:06:31;97145.50;;;23.20;37.46
37068;BME280;22982;42.848;25.468;2022-10-16T07:11:34;97178.50;;;23.38;37.73
37068;BME280;22982;42.848;25.468;2022-10-16T07:16:47;97174.34;;;22.88;39.37
37068;BME280;22982;42.848;25.468;2022-10-16T07:22:22;97155.56;;;22.04;41.75
37068;BME280;22982;42.848;25.468;2022-10-16T07:27:27;97143.84;;;20.15;46.64
37068;BME280;22982;42.848;25.468;2022-10-16T07:32:38;97180.56;;;19.67;49.52
37068;BME280;22982;42.848;25.468;2022-10-16T07:37:44;97171.69;;;18.34;52.60
37068;BME280;22982;42.848;25.468;2022-10-16T07:42:46;97162.91;;;17.15;57.37
37068;BME280;22982;42.848;25.468;2022-10-16T07:47:49;97138.25;;;16.13;61.59
37068;BME280;22982;42.848;25.468;2022-10-16T07:52:51;97186.09;;;16.23;63.52
37068;BME280;22982;42.848;25.468;2022-10-16T07:57:54;97175.72;;;16.33;62.34
37068;BME280;22982;42.848;25.468;2022-10-16T08:02:57;97202.47;;;17.77;54.62
37068;BME280;22982;42.848;25.468;2022-10-16T08:08:02;97203.22;;;19.07;49.28
37068;BME280;22982;42.848;25.468;2022-10-16T08:13:06;97163.31;;;20.36;45.32
37068;BME280;22982;42.848;25.468;2022-10-16T08:18:10;97193.69;;;21.67;44.24
37068;BME280;22982;42.848;25.468;2022-10-16T08:23:13;97176.38;;;21.80;39.91
37068;BME280;22982;42.848;25.468;2022-10-16T08:28:18;97181.19;;;21.07;40.62
37068;BME280;22982;42.848;25.468;2022-10-16T08:33:21;97170.00;;;21.33;41.80
37068;BME280;22982;42.848;25.468;2022-10-16T08:38:27;97129.44;;;21.97;38.78
37068;BME280;22982;42.848;25.468;2022-10-16T08:43:40;97167.50;;;22.09;36.77
37068;BME280;22982;42.848;25.468;2022-10-16T08:48:49;97191.22;;;20.00;39.29
37068;BME280;22982;42.848;25.468;2022-10-16T08:54:04;97176.22;;;20.41;39.00
37068;BME280;22982;42.848;25.468;2022-10-16T08:59:10;97151.53;;;21.70;36.01
37068;BME280;22982;42.848;25.468;2022-10-16T09:10:29;97165.66;;;20.30;37.41
37068;BME280;22982;42.848;25.468;2022-10-16T09:15:55;97186.91;;;22.02;34.99
37068;BME280;22982;42.848;25.468;2022-10-16T09:21:10;97180.41;;;22.24;34.71
37068;BME280;22982;42.848;25.468;2022-10-16T09:26:17;97148.22;;;21.28;35.96
37068;BME280;22982;42.848;25.468;2022-10-16T09:31:24;97165.28;;;21.46;36.36
37068;BME280;22982;42.848;25.468;2022-10-16T09:36:27;97176.13;;;21.14;35.03
37068;BME280;22982;42.848;25.468;2022-10-16T09:41:33;97161.34;;;21.89;33.97
37068;BME280;22982;42.848;25.468;2022-10-16T09:46:36;97192.09;;;21.45;34.27
37068;BME280;22982;42.848;25.468;2022-10-16T09:51:41;97184.38;;;21.51;34.33
37068;BME280;22982;42.848;25.468;2022-10-16T09:56:44;97163.13;;;21.40;35.16
37068;BME280;22982;42.848;25.468;2022-10-16T10:02:01;97182.06;;;21.37;34.69
37068;BME280;22982;42.848;25.468;2022-10-16T10:07:05;97134.38;;;21.53;34.82
37068;BME280;22982;42.848;25.468;2022-10-16T10:17:28;97149.22;;;20.76;36.01
37068;BME280;22982;42.848;25.468;2022-10-16T10:22:44;97133.88;;;21.09;34.48
37068;BME280;22982;42.848;25.468;2022-10-16T10:38:50;97137.19;;;20.92;35.57
37068;BME280;22982;42.848;25.468;2022-10-16T10:50:00;97154.44;;;19.40;37.38
37068;BME280;22982;42.848;25.468;2022-10-16T10:55:19;97127.28;;;18.59;37.83
37068;BME280;22982;42.848;25.468;2022-10-16T11:06:23;97151.09;;;17.91;41.71
37068;BME280;22982;42.848;25.468;2022-10-16T11:11:44;97126.16;;;17.81;42.80
37068;BME280;22982;42.848;25.468;2022-10-16T11:17:15;97141.38;;;17.44;42.72
37068;BME280;22982;42.848;25.468;2022-10-16T11:22:35;97151.72;;;17.47;42.74
37068;BME280;22982;42.848;25.468;2022-10-16T11:27:42;97119.97;;;17.34;40.88
37068;BME280;22982;42.848;25.468;2022-10-16T11:37:55;97113.44;;;17.27;41.65
37068;BME280;22982;42.848;25.468;2022-10-16T11:43:29;97083.03;;;16.71;44.18
37068;BME280;22982;42.848;25.468;2022-10-16T11:59:36;97145.50;;;16.87;43.60
37068;BME280;22982;42.848;25.468;2022-10-16T12:04:51;97111.31;;;16.58;42.80
37068;BME280;22982;42.848;25.468;2022-10-16T12:10:17;97142.84;;;16.74;41.75
37068;BME280;22982;42.848;25.468;2022-10-16T12:15:29;97157.53;;;16.41;42.00
37068;BME280;22982;42.848;25.468;2022-10-16T12:20:59;97136.88;;;16.46;41.99
37068;BME280;22982;42.848;25.468;2022-10-16T12:26:06;97134.88;;;16.11;42.59
37068;BME280;22982;42.848;25.468;2022-10-16T12:31:09;97149.03;;;16.49;42.05
37068;BME280;22982;42.848;25.468;2022-10-16T12:36:26;97126.81;;;16.38;42.93
37068;BME280;22982;42.848;25.468;2022-10-16T12:41:34;97155.78;;;16.65;43.56
37068;BME280;22982;42.848;25.468;2022-10-16T12:46:39;97132.31;;;16.10;43.66
37068;BME280;22982;42.848;25.468;2022-10-16T12:51:42;97172.56;;;16.53;43.06
37068;BME280;22982;42.848;25.468;2022-10-16T13:07:44;97187.03;;;16.35;42.97
37068;BME280;22982;42.848;25.468;2022-10-16T13:18:22;97180.97;;;15.81;43.90
37068;BME280;22982;42.848;25.468;2022-10-16T13:28:41;97186.47;;;15.78;42.97
37068;BME280;22982;42.848;25.468;2022-10-16T13:33:51;97150.94;;;15.55;44.10
37068;BME280;22982;42.848;25.468;2022-10-16T13:39:09;97179.59;;;15.76;44.42
37068;BME280;22982;42.848;25.468;2022-10-16T13:44:22;97179.69;;;15.74;44.89
37068;BME280;22982;42.848;25.468;2022-10-16T13:49:25;97191.31;;;15.84;44.36
37068;BME280;22982;42.848;25.468;2022-10-16T13:54:27;97197.47;;;15.85;43.47
37068;BME280;22982;42.848;25.468;2022-10-16T13:59:36;97174.44;;;15.60;44.00
37068;BME280;22982;42.848;25.468;2022-10-16T14:04:39;97208.59;;;15.77;45.51
37068;BME280;22982;42.848;25.468;2022-10-16T14:09:41;97181.53;;;15.59;44.07
37068;BME280;22982;42.848;25.468;2022-10-16T14:14:46;97204.53;;;15.57;45.50
37068;BME280;22982;42.848;25.468;2022-10-16T14:19:52;97192.81;;;15.48;45.89
37068;BME280;22982;42.848;25.468;2022-10-16T14:30:36;97197.03;;;15.24;50.27
37068;BME280;22982;42.848;25.468;2022-10-16T14:35:39;97199.56;;;14.69;51.25
37068;BME280;22982;42.848;25.468;2022-10-16T14:40:47;97221.25;;;14.89;52.30
37068;BME280;22982;42.848;25.468;2022-10-16T14:45:52;97218.97;;;14.83;54.57
37068;BME280;22982;42.848;25.468;2022-10-16T14:50:56;97222.34;;;14.42;56.38
37068;BME280;22982;42.848;25.468;2022-10-16T14:56:06;97194.69;;;14.04;58.74
37068;BME280;22982;42.848;25.468;2022-10-16T15:01:10;97248.19;;;13.76;65.22
37068;BME280;22982;42.848;25.468;2022-10-16T15:06:15;97251.53;;;13.64;67.70
37068;BME280;22982;42.848;25.468;2022-10-16T15:11:18;97248.06;;;13.15;70.96
37068;BME280;22982;42.848;25.468;2022-10-16T15:16:27;97221.13;;;12.61;72.75
37068;BME280;22982;42.848;25.468;2022-10-16T15:21:31;97227.69;;;12.36;76.28
37068;BME280;22982;42.848;25.468;2022-10-16T15:26:34;97262.50;;;12.06;78.46
37068;BME280;22982;42.848;25.468;2022-10-16T15:31:36;97255.16;;;11.78;81.24
37068;BME280;22982;42.848;25.468;2022-10-16T15:36:39;97221.22;;;11.37;80.78
37068;BME280;22982;42.848;25.468;2022-10-16T15:41:42;97293.63;;;11.05;86.87
37068;BME280;22982;42.848;25.468;2022-10-16T15:46:46;97267.00;;;10.35;90.92
37068;BME280;22982;42.848;25.468;2022-10-16T15:51:49;97306.75;;;10.04;93.56
37068;BME280;22982;42.848;25.468;2022-10-16T15:56:51;97309.53;;;9.56;97.58
37068;BME280;22982;42.848;25.468;2022-10-16T16:01:54;97308.06;;;9.27;98.66
37068;BME280;22982;42.848;25.468;2022-10-16T16:06:57;97328.13;;;9.27;98.20
37068;BME280;22982;42.848;25.468;2022-10-16T16:12:00;97305.91;;;8.91;98.57
37068;BME280;22982;42.848;25.468;2022-10-16T16:17:02;97355.78;;;8.61;100.00
37068;BME280;22982;42.848;25.468;2022-10-16T16:22:05;97344.09;;;8.20;100.00
37068;BME280;22982;42.848;25.468;2022-10-16T16:27:14;97329.09;;;8.00;100.00
37068;BME280;22982;42.848;25.468;2022-10-16T16:32:16;97334.00;;;8.09;100.00
37068;BME280;22982;42.848;25.468;2022-10-16T16:37:35;97378.31;;;8.39;99.74
37068;BME280;22982;42.848;25.468;2022-10-16T16:42:37;97347.06;;;8.09;100.00
37068;BME280;22982;42.848;25.468;2022-10-16T16:47:39;97391.19;;;8.18;100.00
37068;BME280;22982;42.848;25.468;2022-10-16T16:52:42;97375.53;;;7.92;100.00
37068;BME280;22982;42.848;25.468;2022-10-16T16:57:44;97363.19;;;7.69;100.00
37068;BME280;22982;42.848;25.468;2022-10-16T17:02:50;97373.31;;;7.50;100.00
37068;BME280;22982;42.848;25.468;2022-10-16T17:07:52;97382.91;;;7.49;100.00
37068;BME280;22982;42.848;25.468;2022-10-16T17:12:54;97409.41;;;7.35;100.00
37068;BME280;22982;42.848;25.468;2022-10-16T17:17:57;97420.50;;;7.43;100.00
37068;BME280;22982;42.848;25.468;2022-10-16T17:22:59;97381.13;;;7.21;100.00
37068;BME280;22982;42.848;25.468;2022-10-16T17:28:02;97418.03;;;7.07;100.00
37068;BME280;22982;42.848;25.468;2022-10-16T17:33:05;97388.72;;;6.99;100.00
37068;BME280;22982;42.848;25.468;2022-10-16T17:38:31;97387.81;;;7.00;100.00
37068;BME280;22982;42.848;25.468;2022-10-16T17:43:43;97437.50;;;6.96;100.00
37068;BME280;22982;42.848;25.468;2022-10-16T17:49:05;97357.94;;;6.15;100.00
37068;BME280;22982;42.848;25.468;2022-10-16T17:59:57;97425.53;;;5.82;100.00
37068;BME280;22982;42.848;25.468;2022-10-16T18:10:55;97372.03;;;5.30;100.00
37068;BME280;22982;42.848;25.468;2022-10-16T18:16:26;97393.38;;;5.46;100.00
37068;BME280;22982;42.848;25.468;2022-10-16T18:22:02;97451.44;;;5.48;100.00
37068;BME280;22982;42.848;25.468;2022-10-16T18:27:05;97422.75;;;5.09;100.00
37068;BME280;22982;42.848;25.468;2022-10-16T18:32:07;97462.75;;;5.44;100.00
37068;BME280;22982;42.848;25.468;2022-10-16T18:37:09;97454.31;;;5.34;100.00
37068;BME280;22982;42.848;25.468;2022-10-16T18:42:26;97501.06;;;5.39;100.00
37068;BME280;22982;42.848;25.468;2022-10-16T18:47:34;97408.69;;;4.74;100.00
37068;BME280;22982;42.848;25.468;2022-10-16T18:53:03;97451.75;;;4.87;100.00
37068;BME280;22982;42.848;25.468;2022-10-16T18:58:16;97471.91;;;4.74;100.00
37068;BME280;22982;42.848;25.468;2022-10-16T19:03:23;97490.22;;;4.68;100.00
37068;BME280;22982;42.848;25.468;2022-10-16T19:14:07;97490.47;;;4.53;100.00
37068;BME280;22982;42.848;25.468;2022-10-16T19:19:24;97452.81;;;4.26;100.00
37068;BME280;22982;42.848;25.468;2022-10-16T19:24:40;97509.38;;;4.61;100.00
37068;BME280;22982;42.848;25.468;2022-10-16T19:30:11;97537.81;;;4.70;100.00
37068;BME280;22982;42.848;25.468;2022-10-16T19:35:39;97451.69;;;3.88;100.00
37068;BME280;22982;42.848;25.468;2022-10-16T19:40:42;97540.41;;;4.13;100.00
37068;BME280;22982;42.848;25.468;2022-10-16T19:45:44;97516.69;;;3.77;100.00
37068;BME280;22982;42.848;25.468;2022-10-16T19:50:47;97468.47;;;3.63;100.00
37068;BME280;22982;42.848;25.468;2022-10-16T19:55:49;97569.75;;;4.21;100.00
37068;BME280;22982;42.848;25.468;2022-10-16T20:00:52;97514.88;;;3.83;100.00
37068;BME280;22982;42.848;25.468;2022-10-16T20:05:56;97507.28;;;3.68;100.00
37068;BME280;22982;42.848;25.468;2022-10-16T20:16:51;97541.88;;;3.69;100.00
37068;BME280;22982;42.848;25.468;2022-10-16T20:22:51;97588.22;;;3.98;100.00
37068;BME280;22982;42.848;25.468;2022-10-16T20:27:57;97576.38;;;3.77;100.00
37068;BME280;22982;42.848;25.468;2022-10-16T20:32:59;97547.34;;;3.47;100.00
37068;BME280;22982;42.848;25.468;2022-10-16T20:38:03;97530.25;;;3.31;100.00
37068;BME280;22982;42.848;25.468;2022-10-16T20:43:08;97490.72;;;3.09;100.00
37068;BME280;22982;42.848;25.468;2022-10-16T20:48:23;97586.94;;;3.61;100.00
37068;BME280;22982;42.848;25.468;2022-10-16T20:53:43;97586.28;;;3.41;100.00
37068;BME280;22982;42.848;25.468;2022-10-16T20:58:52;97573.41;;;3.33;100.00
37068;BME280;22982;42.848;25.468;2022-10-16T21:03:58;97536.53;;;3.03;100.00
37068;BME280;22982;42.848;25.468;2022-10-16T21:09:01;97524.59;;;2.90;100.00
37068;BME280;22982;42.848;25.468;2022-10-16T21:14:08;97548.53;;;3.15;100.00
37068;BME280;22982;42.848;25.468;2022-10-16T21:19:19;97527.25;;;2.85;100.00
37068;BME280;22982;42.848;25.468;2022-10-16T21:24:47;97523.03;;;2.75;100.00
37068;BME280;22982;42.848;25.468;2022-10-16T21:29:51;97559.84;;;3.06;100.00
37068;BME280;22982;42.848;25.468;2022-10-16T21:34:56;97620.88;;;3.40;100.00
37068;BME280;22982;42.848;25.468;2022-10-16T21:39:58;97620.19;;;3.19;100.00
37068;BME280;22982;42.848;25.468;2022-10-16T21:50:47;97524.84;;;2.64;100.00
37068;BME280;22982;42.848;25.468;2022-10-16T21:55:54;97584.94;;;3.03;100.00
37068;BME280;22982;42.848;25.468;2022-10-16T22:01:33;97624.53;;;3.20;100.00
37068;BME280;22982;42.848;25.468;2022-10-16T22:06:48;97620.38;;;3.02;100.00
37068;BME280;22982;42.848;25.468;2022-10-16T22:12:05;97551.63;;;2.58;100.00
37068;BME280;22982;42.848;25.468;2022-10-16T22:24:16;97636.75;;;3.08;100.00
37068;BME280;22982;42.848;25.468;2022-10-16T22:29:51;97636.88;;;2.89;100.00
37068;BME280;22982;42.848;25.468;2022-10-16T22:34:53;97593.97;;;2.51;100.00
37068;BME280;22982;42.848;25.468;2022-10-16T22:39:59;97558.00;;;2.13;100.00
37068;BME280;22982;42.848;25.468;2022-10-16T22:45:05;97620.94;;;2.22;100.00
37068;BME280;22982;42.848;25.468;2022-10-16T22:55:49;97577.03;;;2.05;100.00
37068;BME280;22982;42.848;25.468;2022-10-16T23:00:59;97571.00;;;2.08;100.00
37068;BME280;22982;42.848;25.468;2022-10-16T23:06:05;97569.38;;;1.84;100.00
37068;BME280;22982;42.848;25.468;2022-10-16T23:11:14;97632.34;;;1.77;100.00
37068;BME280;22982;42.848;25.468;2022-10-16T23:16:37;97641.75;;;1.96;100.00
37068;BME280;22982;42.848;25.468;2022-10-16T23:21:45;97642.63;;;1.89;100.00
37068;BME280;22982;42.848;25.468;2022-10-16T23:26:48;97615.97;;;1.81;100.00
37068;BME280;22982;42.848;25.468;2022-10-16T23:31:53;97639.25;;;1.75;100.00
37068;BME280;22982;42.848;25.468;2022-10-16T23:36:57;97597.09;;;1.51;100.00
37068;BME280;22982;42.848;25.468;2022-10-16T23:42:00;97627.16;;;1.78;100.00
37068;BME280;22982;42.848;25.468;2022-10-16T23:47:06;97677.94;;;2.08;100.00
37068;BME280;22982;42.848;25.468;2022-10-16T23:52:09;97635.72;;;1.89;100.00
37068;BME280;22982;42.848;25.468;2022-10-16T23:57:11;97647.03;;;1.68;100.00
